NCAR-RAP Real-Time Weather Data

Output produced by METARs form (19 June 2019  10:53 UTC)
found at http://weather.rap.ucar.edu/surface/
 
KP28 190956Z AUTO 24006KT 19/19 A2980 RMK AO1 SLP075 T01890189
KP28 190856Z AUTO 00000KT 19/18 A2978 RMK AO1 SLP067 60078 T01890183 56029
KP28 190756Z AUTO 22003KT 18/18 A2978 RMK AO1 SLP070 P0001 T01830183
KP28 190656Z AUTO 07005KT 18/18 A2978 RMK AO1 PK WND 21026/0604 WSHFT 0600 SLP070 P0077 T01830183
KP28 190620Z AUTO 32007G24KT 18/18 A2989 RMK AO1 PK WND 21026/0604 WSHFT 0600 P0068 T01830183
KP28 190556Z AUTO 20005KT 20/19 A2987 RMK AO1 SLP099 T02000189 10272 20194 403170189 53009
KP28 190456Z AUTO 02007KT 19/18 A2983 RMK AO1 SLP089 T01940183
KP28 190356Z AUTO 03004KT 20/18 A2984 RMK AO1 SLP092 T02000178
KP28 190256Z AUTO 05007KT 21/18 A2984 RMK AO1 SLP091 T02110183 51016
KP28 190156Z AUTO 05008KT 22/18 A2982 RMK AO1 SLP085 T02170178
KP28 190056Z AUTO 07016G23KT 24/19 A2982 RMK AO1 SLP083 T02390194
KP28 182356Z AUTO 01012G21KT 27/19 A2979 RMK AO1 WSHFT 2329 SLP072 T02720189 10317 20267 55015
KP28 182349Z AUTO 01016G21KT 27/18 A2979 RMK AO1 WSHFT 2329 T02720183
KP28 182256Z AUTO 31004KT 31/18 A2978 RMK AO1 SLP068 T03060178
KP28 182156Z AUTO 23009KT 31/18 A2979 RMK AO1 SLP072 T03110178
KP28 182056Z AUTO 23007KT 30/17 A2983 RMK AO1 SLP086 T03000167 56023
KP28 181956Z AUTO 18011KT 29/16 A2985 RMK AO1 SLP092 T02890161
KP28 181856Z AUTO VRB06KT 28/19 A2988 RMK AO1 SLP103 T02830189
KP28 181756Z AUTO 11005KT 27/20 A2991 RMK AO1 SLP112 T02670200 10267 20194 58014
KP28 181656Z AUTO 13005KT 24/19 A2993 RMK AO1 SLP119 T02390194
KP28 181556Z AUTO 12007KT 090V150 23/19 A2993 RMK AO1 SLP123 T02330189
KP28 181456Z AUTO 10005KT 22/18 A2995 RMK AO1 SLP129 T02170183 53002
KP28 181356Z AUTO 09004KT 21/18 A2994 RMK AO1 SLP125 T02110183